sensor_id;sensor_type;location;lat;lon;timestamp;P1;durP1;ratioP1;P2;durP2;ratioP2
51907;SDS011;39320;53.214;6.556;2023-07-02T00:00:02;7.75;;;4.60;;
51907;SDS011;39320;53.214;6.556;2023-07-02T00:02:32;9.63;;;5.03;;
51907;SDS011;39320;53.214;6.556;2023-07-02T00:04:59;7.68;;;4.50;;
51907;SDS011;39320;53.214;6.556;2023-07-02T00:07:24;10.20;;;5.00;;
51907;SDS011;39320;53.214;6.556;2023-07-02T00:09:54;9.73;;;5.00;;
51907;SDS011;39320;53.214;6.556;2023-07-02T00:12:19;9.55;;;5.20;;
51907;SDS011;39320;53.214;6.556;2023-07-02T00:14:45;11.27;;;5.28;;
51907;SDS011;39320;53.214;6.556;2023-07-02T00:17:11;11.23;;;5.38;;
51907;SDS011;39320;53.214;6.556;2023-07-02T00:19:37;9.52;;;4.78;;
51907;SDS011;39320;53.214;6.556;2023-07-02T00:22:07;11.70;;;5.78;;
51907;SDS011;39320;53.214;6.556;2023-07-02T00:24:34;11.15;;;5.50;;
51907;SDS011;39320;53.214;6.556;2023-07-02T00:27:00;10.65;;;5.60;;
51907;SDS011;39320;53.214;6.556;2023-07-02T00:29:26;8.23;;;5.47;;
51907;SDS011;39320;53.214;6.556;2023-07-02T00:31:52;9.80;;;5.20;;
51907;SDS011;39320;53.214;6.556;2023-07-02T00:34:18;10.30;;;5.82;;
51907;SDS011;39320;53.214;6.556;2023-07-02T00:36:44;11.10;;;5.47;;
51907;SDS011;39320;53.214;6.556;2023-07-02T00:39:10;8.88;;;5.50;;
51907;SDS011;39320;53.214;6.556;2023-07-02T00:41:41;11.10;;;5.80;;
51907;SDS011;39320;53.214;6.556;2023-07-02T00:44:07;15.35;;;6.20;;
51907;SDS011;39320;53.214;6.556;2023-07-02T00:46:34;11.80;;;5.88;;
51907;SDS011;39320;53.214;6.556;2023-07-02T00:49:00;11.13;;;6.13;;
51907;SDS011;39320;53.214;6.556;2023-07-02T00:51:29;13.15;;;5.90;;
51907;SDS011;39320;53.214;6.556;2023-07-02T00:53:55;11.50;;;5.93;;
51907;SDS011;39320;53.214;6.556;2023-07-02T00:56:23;13.82;;;6.32;;
51907;SDS011;39320;53.214;6.556;2023-07-02T00:58:51;10.75;;;5.85;;
51907;SDS011;39320;53.214;6.556;2023-07-02T01:01:23;12.63;;;7.03;;
51907;SDS011;39320;53.214;6.556;2023-07-02T01:04:00;11.13;;;6.35;;
51907;SDS011;39320;53.214;6.556;2023-07-02T01:06:28;11.10;;;6.20;;
51907;SDS011;39320;53.214;6.556;2023-07-02T01:08:59;12.30;;;6.82;;
51907;SDS011;39320;53.214;6.556;2023-07-02T01:14:08;10.70;;;6.05;;
51907;SDS011;39320;53.214;6.556;2023-07-02T01:16:37;12.52;;;6.25;;
51907;SDS011;39320;53.214;6.556;2023-07-02T01:19:11;12.77;;;6.20;;
51907;SDS011;39320;53.214;6.556;2023-07-02T01:21:57;10.38;;;5.95;;
51907;SDS011;39320;53.214;6.556;2023-07-02T01:24:24;10.75;;;5.97;;
51907;SDS011;39320;53.214;6.556;2023-07-02T01:26:49;12.65;;;6.60;;
51907;SDS011;39320;53.214;6.556;2023-07-02T01:29:16;14.73;;;6.88;;
51907;SDS011;39320;53.214;6.556;2023-07-02T01:31:43;12.43;;;6.88;;
51907;SDS011;39320;53.214;6.556;2023-07-02T01:34:09;13.77;;;6.45;;
51907;SDS011;39320;53.214;6.556;2023-07-02T01:36:36;15.68;;;7.40;;
51907;SDS011;39320;53.214;6.556;2023-07-02T01:39:02;12.70;;;7.32;;
51907;SDS011;39320;53.214;6.556;2023-07-02T01:41:28;14.00;;;7.43;;
51907;SDS011;39320;53.214;6.556;2023-07-02T01:43:54;13.73;;;6.90;;
51907;SDS011;39320;53.214;6.556;2023-07-02T01:46:20;11.23;;;6.38;;
51907;SDS011;39320;53.214;6.556;2023-07-02T01:48:46;17.23;;;8.00;;
51907;SDS011;39320;53.214;6.556;2023-07-02T01:51:12;14.85;;;7.20;;
51907;SDS011;39320;53.214;6.556;2023-07-02T01:53:39;11.63;;;6.20;;
51907;SDS011;39320;53.214;6.556;2023-07-02T01:56:04;18.35;;;7.10;;
51907;SDS011;39320;53.214;6.556;2023-07-02T01:58:30;13.85;;;7.10;;
51907;SDS011;39320;53.214;6.556;2023-07-02T02:00:56;15.48;;;7.15;;
51907;SDS011;39320;53.214;6.556;2023-07-02T02:03:22;17.15;;;7.18;;
51907;SDS011;39320;53.214;6.556;2023-07-02T02:05:48;11.68;;;6.53;;
51907;SDS011;39320;53.214;6.556;2023-07-02T02:08:14;16.13;;;7.43;;
51907;SDS011;39320;53.214;6.556;2023-07-02T02:10:40;17.05;;;7.40;;
51907;SDS011;39320;53.214;6.556;2023-07-02T02:13:05;14.98;;;7.63;;
51907;SDS011;39320;53.214;6.556;2023-07-02T02:15:31;14.38;;;6.78;;
51907;SDS011;39320;53.214;6.556;2023-07-02T02:17:57;16.30;;;6.35;;
51907;SDS011;39320;53.214;6.556;2023-07-02T02:20:23;13.65;;;6.32;;
51907;SDS011;39320;53.214;6.556;2023-07-02T02:22:51;11.38;;;7.28;;
51907;SDS011;39320;53.214;6.556;2023-07-02T02:25:17;12.25;;;6.82;;
51907;SDS011;39320;53.214;6.556;2023-07-02T02:27:42;14.30;;;6.75;;
51907;SDS011;39320;53.214;6.556;2023-07-02T02:30:08;16.92;;;7.13;;
51907;SDS011;39320;53.214;6.556;2023-07-02T02:32:34;15.27;;;7.63;;
51907;SDS011;39320;53.214;6.556;2023-07-02T02:35:00;12.15;;;6.60;;
51907;SDS011;39320;53.214;6.556;2023-07-02T02:37:26;12.63;;;7.03;;
51907;SDS011;39320;53.214;6.556;2023-07-02T02:39:52;16.10;;;7.03;;
51907;SDS011;39320;53.214;6.556;2023-07-02T02:42:17;12.93;;;6.75;;
51907;SDS011;39320;53.214;6.556;2023-07-02T02:44:43;10.70;;;6.38;;
51907;SDS011;39320;53.214;6.556;2023-07-02T02:47:09;16.42;;;7.13;;
51907;SDS011;39320;53.214;6.556;2023-07-02T02:49:36;15.65;;;7.15;;
51907;SDS011;39320;53.214;6.556;2023-07-02T02:52:04;12.80;;;6.35;;
51907;SDS011;39320;53.214;6.556;2023-07-02T02:54:30;12.48;;;7.00;;
51907;SDS011;39320;53.214;6.556;2023-07-02T02:56:55;16.27;;;7.00;;
51907;SDS011;39320;53.214;6.556;2023-07-02T02:59:21;19.25;;;7.55;;
51907;SDS011;39320;53.214;6.556;2023-07-02T03:01:47;12.70;;;6.80;;
51907;SDS011;39320;53.214;6.556;2023-07-02T03:04:13;12.93;;;5.78;;
51907;SDS011;39320;53.214;6.556;2023-07-02T03:06:39;16.23;;;7.72;;
51907;SDS011;39320;53.214;6.556;2023-07-02T03:09:05;14.52;;;6.70;;
51907;SDS011;39320;53.214;6.556;2023-07-02T03:11:30;12.93;;;7.50;;
51907;SDS011;39320;53.214;6.556;2023-07-02T03:13:56;16.38;;;7.45;;
51907;SDS011;39320;53.214;6.556;2023-07-02T03:16:22;13.93;;;7.07;;
51907;SDS011;39320;53.214;6.556;2023-07-02T03:18:48;14.93;;;6.95;;
51907;SDS011;39320;53.214;6.556;2023-07-02T03:21:14;15.60;;;7.13;;
51907;SDS011;39320;53.214;6.556;2023-07-02T03:23:39;15.18;;;7.88;;
51907;SDS011;39320;53.214;6.556;2023-07-02T03:26:06;16.60;;;6.45;;
51907;SDS011;39320;53.214;6.556;2023-07-02T03:28:32;12.02;;;7.00;;
51907;SDS011;39320;53.214;6.556;2023-07-02T03:30:59;16.10;;;6.93;;
51907;SDS011;39320;53.214;6.556;2023-07-02T03:33:25;14.60;;;7.68;;
51907;SDS011;39320;53.214;6.556;2023-07-02T03:35:51;16.40;;;7.30;;
51907;SDS011;39320;53.214;6.556;2023-07-02T03:38:17;11.45;;;6.82;;
51907;SDS011;39320;53.214;6.556;2023-07-02T03:40:42;12.52;;;6.43;;
51907;SDS011;39320;53.214;6.556;2023-07-02T03:43:08;12.70;;;6.90;;
51907;SDS011;39320;53.214;6.556;2023-07-02T03:45:34;13.88;;;6.63;;
51907;SDS011;39320;53.214;6.556;2023-07-02T03:48:00;13.50;;;7.30;;
51907;SDS011;39320;53.214;6.556;2023-07-02T03:50:26;15.45;;;6.97;;
51907;SDS011;39320;53.214;6.556;2023-07-02T03:52:51;16.05;;;7.03;;
51907;SDS011;39320;53.214;6.556;2023-07-02T03:55:18;15.82;;;7.15;;
51907;SDS011;39320;53.214;6.556;2023-07-02T03:57:45;14.75;;;6.65;;
51907;SDS011;39320;53.214;6.556;2023-07-02T04:00:11;11.07;;;7.82;;
51907;SDS011;39320;53.214;6.556;2023-07-02T04:02:37;13.05;;;6.50;;
51907;SDS011;39320;53.214;6.556;2023-07-02T04:05:03;13.18;;;6.70;;
51907;SDS011;39320;53.214;6.556;2023-07-02T04:07:29;12.70;;;6.75;;
51907;SDS011;39320;53.214;6.556;2023-07-02T04:09:55;16.42;;;7.18;;
51907;SDS011;39320;53.214;6.556;2023-07-02T04:12:21;11.43;;;6.38;;
51907;SDS011;39320;53.214;6.556;2023-07-02T04:14:47;11.80;;;7.03;;
51907;SDS011;39320;53.214;6.556;2023-07-02T04:17:13;14.88;;;6.97;;
51907;SDS011;39320;53.214;6.556;2023-07-02T04:19:39;13.38;;;7.03;;
51907;SDS011;39320;53.214;6.556;2023-07-02T04:22:04;10.15;;;6.00;;
51907;SDS011;39320;53.214;6.556;2023-07-02T04:24:30;12.98;;;6.80;;
51907;SDS011;39320;53.214;6.556;2023-07-02T04:26:56;10.20;;;5.75;;
51907;SDS011;39320;53.214;6.556;2023-07-02T04:29:22;13.07;;;6.88;;
51907;SDS011;39320;53.214;6.556;2023-07-02T04:31:48;12.07;;;6.22;;
51907;SDS011;39320;53.214;6.556;2023-07-02T04:34:13;17.38;;;7.32;;
51907;SDS011;39320;53.214;6.556;2023-07-02T04:36:39;12.80;;;7.20;;
51907;SDS011;39320;53.214;6.556;2023-07-02T04:39:05;11.57;;;6.28;;
51907;SDS011;39320;53.214;6.556;2023-07-02T04:41:31;15.05;;;7.68;;
51907;SDS011;39320;53.214;6.556;2023-07-02T04:43:57;11.30;;;6.05;;
51907;SDS011;39320;53.214;6.556;2023-07-02T04:46:23;12.02;;;6.85;;
51907;SDS011;39320;53.214;6.556;2023-07-02T04:48:49;15.25;;;5.97;;
51907;SDS011;39320;53.214;6.556;2023-07-02T04:51:15;14.05;;;6.00;;
51907;SDS011;39320;53.214;6.556;2023-07-02T04:53:40;17.45;;;6.28;;
51907;SDS011;39320;53.214;6.556;2023-07-02T04:56:06;12.38;;;6.68;;
51907;SDS011;39320;53.214;6.556;2023-07-02T04:58:32;13.10;;;6.03;;
51907;SDS011;39320;53.214;6.556;2023-07-02T05:00:58;11.38;;;5.93;;
51907;SDS011;39320;53.214;6.556;2023-07-02T05:03:24;13.75;;;5.72;;
51907;SDS011;39320;53.214;6.556;2023-07-02T05:05:49;11.77;;;5.35;;
51907;SDS011;39320;53.214;6.556;2023-07-02T05:08:15;9.77;;;5.00;;
51907;SDS011;39320;53.214;6.556;2023-07-02T05:10:41;9.45;;;5.50;;
51907;SDS011;39320;53.214;6.556;2023-07-02T05:13:07;9.32;;;4.63;;
51907;SDS011;39320;53.214;6.556;2023-07-02T05:15:33;10.15;;;4.45;;
51907;SDS011;39320;53.214;6.556;2023-07-02T05:17:59;10.13;;;5.05;;
51907;SDS011;39320;53.214;6.556;2023-07-02T05:20:25;7.57;;;4.38;;
51907;SDS011;39320;53.214;6.556;2023-07-02T05:22:51;10.18;;;5.00;;
51907;SDS011;39320;53.214;6.556;2023-07-02T05:25:17;6.88;;;4.35;;
51907;SDS011;39320;53.214;6.556;2023-07-02T05:27:43;8.63;;;4.15;;
51907;SDS011;39320;53.214;6.556;2023-07-02T05:30:08;9.02;;;4.85;;
51907;SDS011;39320;53.214;6.556;2023-07-02T05:32:35;8.82;;;4.18;;
51907;SDS011;39320;53.214;6.556;2023-07-02T05:35:00;10.20;;;4.70;;
51907;SDS011;39320;53.214;6.556;2023-07-02T05:37:26;10.98;;;5.13;;
51907;SDS011;39320;53.214;6.556;2023-07-02T05:39:52;12.38;;;4.85;;
51907;SDS011;39320;53.214;6.556;2023-07-02T05:42:18;7.32;;;4.00;;
51907;SDS011;39320;53.214;6.556;2023-07-02T05:44:44;7.70;;;4.88;;
51907;SDS011;39320;53.214;6.556;2023-07-02T05:47:10;8.98;;;5.38;;
51907;SDS011;39320;53.214;6.556;2023-07-02T05:49:35;7.80;;;4.78;;
51907;SDS011;39320;53.214;6.556;2023-07-02T05:52:01;7.68;;;4.28;;
51907;SDS011;39320;53.214;6.556;2023-07-02T05:54:27;11.68;;;5.10;;
51907;SDS011;39320;53.214;6.556;2023-07-02T05:56:53;11.65;;;4.85;;
51907;SDS011;39320;53.214;6.556;2023-07-02T05:59:18;16.77;;;5.65;;
51907;SDS011;39320;53.214;6.556;2023-07-02T06:01:44;9.40;;;4.90;;
51907;SDS011;39320;53.214;6.556;2023-07-02T06:04:10;9.80;;;5.00;;
51907;SDS011;39320;53.214;6.556;2023-07-02T06:06:36;14.55;;;5.38;;
51907;SDS011;39320;53.214;6.556;2023-07-02T06:09:02;12.32;;;4.47;;
51907;SDS011;39320;53.214;6.556;2023-07-02T06:11:28;6.85;;;4.25;;
51907;SDS011;39320;53.214;6.556;2023-07-02T06:13:54;11.77;;;4.82;;
51907;SDS011;39320;53.214;6.556;2023-07-02T06:16:20;10.27;;;4.82;;
51907;SDS011;39320;53.214;6.556;2023-07-02T06:18:46;9.45;;;4.47;;
51907;SDS011;39320;53.214;6.556;2023-07-02T06:21:12;8.38;;;4.47;;
51907;SDS011;39320;53.214;6.556;2023-07-02T06:23:42;9.50;;;4.43;;
51907;SDS011;39320;53.214;6.556;2023-07-02T06:26:08;9.13;;;4.78;;
51907;SDS011;39320;53.214;6.556;2023-07-02T06:28:34;8.02;;;4.57;;
51907;SDS011;39320;53.214;6.556;2023-07-02T06:30:59;7.00;;;4.15;;
51907;SDS011;39320;53.214;6.556;2023-07-02T06:33:26;10.15;;;4.68;;
51907;SDS011;39320;53.214;6.556;2023-07-02T06:35:51;8.40;;;5.05;;
51907;SDS011;39320;53.214;6.556;2023-07-02T06:38:17;10.75;;;5.00;;
51907;SDS011;39320;53.214;6.556;2023-07-02T06:40:43;10.30;;;5.03;;
51907;SDS011;39320;53.214;6.556;2023-07-02T06:43:09;10.48;;;4.95;;
51907;SDS011;39320;53.214;6.556;2023-07-02T06:45:34;7.00;;;4.28;;
51907;SDS011;39320;53.214;6.556;2023-07-02T06:48:00;6.43;;;3.78;;
51907;SDS011;39320;53.214;6.556;2023-07-02T06:50:26;7.38;;;3.03;;
51907;SDS011;39320;53.214;6.556;2023-07-02T06:52:52;8.27;;;3.10;;
51907;SDS011;39320;53.214;6.556;2023-07-02T06:55:18;8.98;;;2.85;;
51907;SDS011;39320;53.214;6.556;2023-07-02T06:57:44;5.70;;;3.05;;
51907;SDS011;39320;53.214;6.556;2023-07-02T07:00:19;6.82;;;3.47;;
51907;SDS011;39320;53.214;6.556;2023-07-02T07:02:45;6.70;;;2.67;;
51907;SDS011;39320;53.214;6.556;2023-07-02T07:05:11;8.45;;;2.88;;
51907;SDS011;39320;53.214;6.556;2023-07-02T07:07:40;7.38;;;2.75;;
51907;SDS011;39320;53.214;6.556;2023-07-02T07:10:09;7.22;;;2.78;;
51907;SDS011;39320;53.214;6.556;2023-07-02T07:12:35;6.70;;;3.03;;
51907;SDS011;39320;53.214;6.556;2023-07-02T07:15:04;6.35;;;2.25;;
51907;SDS011;39320;53.214;6.556;2023-07-02T07:17:30;7.88;;;2.60;;
51907;SDS011;39320;53.214;6.556;2023-07-02T07:19:56;8.40;;;3.70;;
51907;SDS011;39320;53.214;6.556;2023-07-02T07:22:22;7.55;;;2.65;;
51907;SDS011;39320;53.214;6.556;2023-07-02T07:24:48;7.97;;;2.50;;
51907;SDS011;39320;53.214;6.556;2023-07-02T07:27:14;5.88;;;2.60;;
51907;SDS011;39320;53.214;6.556;2023-07-02T07:29:40;6.50;;;2.42;;
51907;SDS011;39320;53.214;6.556;2023-07-02T07:32:06;5.10;;;2.33;;
51907;SDS011;39320;53.214;6.556;2023-07-02T07:34:32;6.15;;;2.63;;
51907;SDS011;39320;53.214;6.556;2023-07-02T07:36:58;6.13;;;2.60;;
51907;SDS011;39320;53.214;6.556;2023-07-02T07:39:23;5.60;;;2.53;;
51907;SDS011;39320;53.214;6.556;2023-07-02T07:41:49;8.13;;;2.50;;
51907;SDS011;39320;53.214;6.556;2023-07-02T07:44:15;7.20;;;3.20;;
51907;SDS011;39320;53.214;6.556;2023-07-02T07:46:42;4.60;;;2.00;;
51907;SDS011;39320;53.214;6.556;2023-07-02T07:49:09;7.53;;;2.38;;
51907;SDS011;39320;53.214;6.556;2023-07-02T07:51:35;6.97;;;2.22;;
51907;SDS011;39320;53.214;6.556;2023-07-02T07:54:01;5.18;;;2.47;;
51907;SDS011;39320;53.214;6.556;2023-07-02T07:56:28;4.50;;;2.60;;
51907;SDS011;39320;53.214;6.556;2023-07-02T07:58:54;6.88;;;2.33;;
51907;SDS011;39320;53.214;6.556;2023-07-02T08:01:19;10.43;;;2.53;;
51907;SDS011;39320;53.214;6.556;2023-07-02T08:03:46;6.45;;;2.20;;
51907;SDS011;39320;53.214;6.556;2023-07-02T08:06:11;6.10;;;2.88;;
51907;SDS011;39320;53.214;6.556;2023-07-02T08:08:37;9.00;;;2.42;;
51907;SDS011;39320;53.214;6.556;2023-07-02T08:11:03;8.23;;;2.60;;
51907;SDS011;39320;53.214;6.556;2023-07-02T08:13:29;5.95;;;2.85;;
51907;SDS011;39320;53.214;6.556;2023-07-02T08:15:58;6.93;;;2.70;;
51907;SDS011;39320;53.214;6.556;2023-07-02T08:18:28;4.68;;;2.38;;
51907;SDS011;39320;53.214;6.556;2023-07-02T08:21:03;5.35;;;2.50;;
51907;SDS011;39320;53.214;6.556;2023-07-02T08:23:31;4.22;;;2.15;;
51907;SDS011;39320;53.214;6.556;2023-07-02T08:25:57;5.95;;;2.63;;
51907;SDS011;39320;53.214;6.556;2023-07-02T08:28:23;5.85;;;2.30;;
51907;SDS011;39320;53.214;6.556;2023-07-02T08:30:48;7.10;;;2.70;;
51907;SDS011;39320;53.214;6.556;2023-07-02T08:33:14;9.18;;;3.15;;
51907;SDS011;39320;53.214;6.556;2023-07-02T08:35:40;6.53;;;2.92;;
51907;SDS011;39320;53.214;6.556;2023-07-02T08:38:06;5.43;;;3.55;;
51907;SDS011;39320;53.214;6.556;2023-07-02T08:40:33;10.35;;;4.10;;
51907;SDS011;39320;53.214;6.556;2023-07-02T08:42:59;5.45;;;3.30;;
51907;SDS011;39320;53.214;6.556;2023-07-02T08:45:24;5.85;;;3.08;;
51907;SDS011;39320;53.214;6.556;2023-07-02T08:47:51;7.45;;;3.65;;
51907;SDS011;39320;53.214;6.556;2023-07-02T08:50:21;8.55;;;4.15;;
51907;SDS011;39320;53.214;6.556;2023-07-02T08:52:48;6.43;;;2.97;;
51907;SDS011;39320;53.214;6.556;2023-07-02T08:55:18;7.97;;;2.92;;
51907;SDS011;39320;53.214;6.556;2023-07-02T08:57:47;9.20;;;3.28;;
51907;SDS011;39320;53.214;6.556;2023-07-02T09:00:15;8.90;;;2.78;;
51907;SDS011;39320;53.214;6.556;2023-07-02T09:02:41;9.25;;;3.53;;
51907;SDS011;39320;53.214;6.556;2023-07-02T09:05:07;7.65;;;3.47;;
51907;SDS011;39320;53.214;6.556;2023-07-02T09:07:42;6.35;;;2.85;;
51907;SDS011;39320;53.214;6.556;2023-07-02T09:10:10;5.78;;;3.03;;
51907;SDS011;39320;53.214;6.556;2023-07-02T09:12:36;7.00;;;3.03;;
51907;SDS011;39320;53.214;6.556;2023-07-02T09:15:06;7.03;;;2.83;;
51907;SDS011;39320;53.214;6.556;2023-07-02T09:17:36;6.68;;;2.83;;
51907;SDS011;39320;53.214;6.556;2023-07-02T09:20:03;9.40;;;2.90;;
51907;SDS011;39320;53.214;6.556;2023-07-02T09:22:32;8.50;;;2.67;;
51907;SDS011;39320;53.214;6.556;2023-07-02T09:25:02;5.40;;;1.88;;
51907;SDS011;39320;53.214;6.556;2023-07-02T09:27:41;6.28;;;2.40;;
51907;SDS011;39320;53.214;6.556;2023-07-02T09:30:11;4.47;;;1.98;;
51907;SDS011;39320;53.214;6.556;2023-07-02T09:32:40;5.28;;;1.95;;
51907;SDS011;39320;53.214;6.556;2023-07-02T09:35:07;5.18;;;2.20;;
51907;SDS011;39320;53.214;6.556;2023-07-02T09:37:32;7.05;;;2.08;;
51907;SDS011;39320;53.214;6.556;2023-07-02T09:40:03;4.47;;;2.15;;
51907;SDS011;39320;53.214;6.556;2023-07-02T09:42:32;3.38;;;1.83;;
51907;SDS011;39320;53.214;6.556;2023-07-02T09:45:00;12.23;;;2.55;;
51907;SDS011;39320;53.214;6.556;2023-07-02T09:47:27;5.45;;;2.20;;
51907;SDS011;39320;53.214;6.556;2023-07-02T09:49:55;5.63;;;2.03;;
51907;SDS011;39320;53.214;6.556;2023-07-02T09:52:25;5.18;;;1.92;;
51907;SDS011;39320;53.214;6.556;2023-07-02T09:54:52;3.58;;;1.73;;
51907;SDS011;39320;53.214;6.556;2023-07-02T09:57:18;5.63;;;2.42;;
51907;SDS011;39320;53.214;6.556;2023-07-02T09:59:44;5.80;;;2.80;;
51907;SDS011;39320;53.214;6.556;2023-07-02T10:02:10;5.50;;;1.92;;
51907;SDS011;39320;53.214;6.556;2023-07-02T10:04:41;4.68;;;2.13;;
51907;SDS011;39320;53.214;6.556;2023-07-02T10:07:08;4.47;;;2.38;;
51907;SDS011;39320;53.214;6.556;2023-07-02T10:09:37;3.47;;;1.70;;
51907;SDS011;39320;53.214;6.556;2023-07-02T10:12:20;4.32;;;2.03;;
51907;SDS011;39320;53.214;6.556;2023-07-02T10:14:47;4.80;;;1.92;;
51907;SDS011;39320;53.214;6.556;2023-07-02T10:17:28;5.65;;;2.25;;
51907;SDS011;39320;53.214;6.556;2023-07-02T10:20:05;6.55;;;2.45;;
51907;SDS011;39320;53.214;6.556;2023-07-02T10:22:45;6.00;;;2.10;;
51907;SDS011;39320;53.214;6.556;2023-07-02T10:25:23;5.20;;;1.92;;
51907;SDS011;39320;53.214;6.556;2023-07-02T10:27:50;4.05;;;1.77;;
51907;SDS011;39320;53.214;6.556;2023-07-02T10:30:16;7.68;;;2.25;;
51907;SDS011;39320;53.214;6.556;2023-07-02T10:32:42;4.72;;;2.20;;
51907;SDS011;39320;53.214;6.556;2023-07-02T10:35:14;4.30;;;2.13;;
51907;SDS011;39320;53.214;6.556;2023-07-02T10:37:43;5.55;;;2.50;;
51907;SDS011;39320;53.214;6.556;2023-07-02T10:40:10;5.70;;;2.45;;
51907;SDS011;39320;53.214;6.556;2023-07-02T10:42:46;6.45;;;2.60;;
51907;SDS011;39320;53.214;6.556;2023-07-02T10:45:17;6.93;;;2.95;;
51907;SDS011;39320;53.214;6.556;2023-07-02T10:47:44;4.75;;;2.30;;
51907;SDS011;39320;53.214;6.556;2023-07-02T10:50:17;6.28;;;2.40;;
51907;SDS011;39320;53.214;6.556;2023-07-02T10:52:44;5.57;;;1.77;;
51907;SDS011;39320;53.214;6.556;2023-07-02T10:55:10;7.85;;;2.22;;
51907;SDS011;39320;53.214;6.556;2023-07-02T10:57:46;5.50;;;2.75;;
51907;SDS011;39320;53.214;6.556;2023-07-02T11:00:20;4.32;;;2.35;;
51907;SDS011;39320;53.214;6.556;2023-07-02T11:02:53;7.43;;;2.60;;
51907;SDS011;39320;53.214;6.556;2023-07-02T11:05:20;8.57;;;2.55;;
51907;SDS011;39320;53.214;6.556;2023-07-02T11:07:47;6.45;;;2.33;;
51907;SDS011;39320;53.214;6.556;2023-07-02T11:10:25;5.47;;;2.17;;
51907;SDS011;39320;53.214;6.556;2023-07-02T11:12:50;6.88;;;2.78;;
51907;SDS011;39320;53.214;6.556;2023-07-02T11:15:17;5.68;;;2.25;;
51907;SDS011;39320;53.214;6.556;2023-07-02T11:17:43;8.23;;;2.75;;
51907;SDS011;39320;53.214;6.556;2023-07-02T11:20:10;7.10;;;2.45;;
51907;SDS011;39320;53.214;6.556;2023-07-02T11:22:37;5.78;;;2.10;;
51907;SDS011;39320;53.214;6.556;2023-07-02T11:25:13;5.28;;;2.33;;
51907;SDS011;39320;53.214;6.556;2023-07-02T11:27:43;3.70;;;2.00;;
51907;SDS011;39320;53.214;6.556;2023-07-02T11:30:09;5.07;;;2.42;;
51907;SDS011;39320;53.214;6.556;2023-07-02T11:32:55;7.70;;;2.50;;
51907;SDS011;39320;53.214;6.556;2023-07-02T11:35:21;4.15;;;1.85;;
51907;SDS011;39320;53.214;6.556;2023-07-02T11:37:58;4.07;;;1.85;;
51907;SDS011;39320;53.214;6.556;2023-07-02T11:40:24;5.93;;;2.20;;
51907;SDS011;39320;53.214;6.556;2023-07-02T11:42:50;6.53;;;2.42;;
51907;SDS011;39320;53.214;6.556;2023-07-02T11:45:19;5.63;;;2.17;;
51907;SDS011;39320;53.214;6.556;2023-07-02T11:47:46;3.72;;;1.60;;
51907;SDS011;39320;53.214;6.556;2023-07-02T11:50:12;5.43;;;1.88;;
51907;SDS011;39320;53.214;6.556;2023-07-02T11:52:38;5.07;;;1.83;;
51907;SDS011;39320;53.214;6.556;2023-07-02T11:55:04;6.90;;;2.50;;
51907;SDS011;39320;53.214;6.556;2023-07-02T11:57:30;7.15;;;2.13;;
51907;SDS011;39320;53.214;6.556;2023-07-02T11:59:56;5.80;;;1.98;;
51907;SDS011;39320;53.214;6.556;2023-07-02T12:02:22;4.63;;;2.15;;
51907;SDS011;39320;53.214;6.556;2023-07-02T12:04:48;4.45;;;2.20;;
51907;SDS011;39320;53.214;6.556;2023-07-02T12:07:14;6.43;;;1.83;;
51907;SDS011;39320;53.214;6.556;2023-07-02T12:09:40;6.53;;;1.88;;
51907;SDS011;39320;53.214;6.556;2023-07-02T12:12:06;5.45;;;1.73;;
51907;SDS011;39320;53.214;6.556;2023-07-02T12:14:32;4.55;;;1.88;;
51907;SDS011;39320;53.214;6.556;2023-07-02T12:16:58;7.40;;;2.22;;
51907;SDS011;39320;53.214;6.556;2023-07-02T12:19:24;4.72;;;2.45;;
51907;SDS011;39320;53.214;6.556;2023-07-02T12:21:50;4.95;;;2.30;;
51907;SDS011;39320;53.214;6.556;2023-07-02T12:24:15;3.78;;;2.30;;
51907;SDS011;39320;53.214;6.556;2023-07-02T12:26:41;6.10;;;2.00;;
51907;SDS011;39320;53.214;6.556;2023-07-02T12:29:07;4.78;;;1.98;;
51907;SDS011;39320;53.214;6.556;2023-07-02T12:31:33;3.25;;;1.90;;
51907;SDS011;39320;53.214;6.556;2023-07-02T12:33:59;6.05;;;2.38;;
51907;SDS011;39320;53.214;6.556;2023-07-02T12:36:25;5.60;;;2.40;;
51907;SDS011;39320;53.214;6.556;2023-07-02T12:38:50;3.85;;;1.73;;
51907;SDS011;39320;53.214;6.556;2023-07-02T12:41:16;5.32;;;2.10;;
51907;SDS011;39320;53.214;6.556;2023-07-02T12:43:42;3.85;;;2.30;;
51907;SDS011;39320;53.214;6.556;2023-07-02T12:46:08;4.28;;;2.33;;
51907;SDS011;39320;53.214;6.556;2023-07-02T12:48:33;4.55;;;2.50;;
51907;SDS011;39320;53.214;6.556;2023-07-02T12:50:59;3.50;;;2.22;;
51907;SDS011;39320;53.214;6.556;2023-07-02T12:53:26;6.03;;;2.72;;
51907;SDS011;39320;53.214;6.556;2023-07-02T12:55:53;4.38;;;2.30;;
51907;SDS011;39320;53.214;6.556;2023-07-02T12:58:20;6.85;;;2.40;;
51907;SDS011;39320;53.214;6.556;2023-07-02T13:00:46;6.78;;;2.63;;
51907;SDS011;39320;53.214;6.556;2023-07-02T13:03:13;7.55;;;3.00;;
51907;SDS011;39320;53.214;6.556;2023-07-02T13:05:39;6.07;;;2.80;;
51907;SDS011;39320;53.214;6.556;2023-07-02T13:08:05;5.88;;;2.50;;
51907;SDS011;39320;53.214;6.556;2023-07-02T13:10:32;9.18;;;3.42;;
51907;SDS011;39320;53.214;6.556;2023-07-02T13:12:59;9.10;;;3.40;;
51907;SDS011;39320;53.214;6.556;2023-07-02T13:15:25;10.43;;;2.97;;
51907;SDS011;39320;53.214;6.556;2023-07-02T13:17:51;7.65;;;3.53;;
51907;SDS011;39320;53.214;6.556;2023-07-02T13:20:17;7.03;;;2.58;;
51907;SDS011;39320;53.214;6.556;2023-07-02T13:22:43;6.13;;;3.00;;
51907;SDS011;39320;53.214;6.556;2023-07-02T13:25:08;7.30;;;2.67;;
51907;SDS011;39320;53.214;6.556;2023-07-02T13:27:34;5.25;;;3.30;;
51907;SDS011;39320;53.214;6.556;2023-07-02T13:30:00;9.80;;;3.08;;
51907;SDS011;39320;53.214;6.556;2023-07-02T13:32:27;7.25;;;3.20;;
51907;SDS011;39320;53.214;6.556;2023-07-02T13:34:53;7.60;;;2.63;;
51907;SDS011;39320;53.214;6.556;2023-07-02T13:37:18;7.32;;;2.85;;
51907;SDS011;39320;53.214;6.556;2023-07-02T13:39:48;5.30;;;2.80;;
51907;SDS011;39320;53.214;6.556;2023-07-02T13:42:15;4.63;;;3.03;;
51907;SDS011;39320;53.214;6.556;2023-07-02T13:44:41;6.50;;;3.25;;
51907;SDS011;39320;53.214;6.556;2023-07-02T13:47:07;5.60;;;2.38;;
51907;SDS011;39320;53.214;6.556;2023-07-02T13:49:34;5.30;;;2.67;;
51907;SDS011;39320;53.214;6.556;2023-07-02T13:51:59;4.47;;;2.40;;
51907;SDS011;39320;53.214;6.556;2023-07-02T13:54:26;5.72;;;3.38;;
51907;SDS011;39320;53.214;6.556;2023-07-02T13:56:52;5.93;;;3.13;;
51907;SDS011;39320;53.214;6.556;2023-07-02T13:59:18;5.15;;;3.15;;
51907;SDS011;39320;53.214;6.556;2023-07-02T14:01:45;6.18;;;3.25;;
51907;SDS011;39320;53.214;6.556;2023-07-02T14:04:12;6.80;;;3.40;;
51907;SDS011;39320;53.214;6.556;2023-07-02T14:06:39;5.95;;;2.90;;
51907;SDS011;39320;53.214;6.556;2023-07-02T14:09:06;6.20;;;3.17;;
51907;SDS011;39320;53.214;6.556;2023-07-02T14:11:33;5.95;;;3.05;;
51907;SDS011;39320;53.214;6.556;2023-07-02T14:14:00;7.65;;;3.20;;
51907;SDS011;39320;53.214;6.556;2023-07-02T14:16:26;7.45;;;3.33;;
51907;SDS011;39320;53.214;6.556;2023-07-02T14:18:52;7.30;;;3.40;;
51907;SDS011;39320;53.214;6.556;2023-07-02T14:21:18;8.85;;;3.15;;
51907;SDS011;39320;53.214;6.556;2023-07-02T14:23:46;6.55;;;3.03;;
51907;SDS011;39320;53.214;6.556;2023-07-02T14:26:12;6.57;;;3.47;;
51907;SDS011;39320;53.214;6.556;2023-07-02T14:28:38;6.75;;;3.28;;
51907;SDS011;39320;53.214;6.556;2023-07-02T14:31:04;12.43;;;3.17;;
51907;SDS011;39320;53.214;6.556;2023-07-02T14:33:31;6.97;;;3.75;;
51907;SDS011;39320;53.214;6.556;2023-07-02T14:36:00;10.45;;;3.53;;
51907;SDS011;39320;53.214;6.556;2023-07-02T14:38:26;5.03;;;3.00;;
51907;SDS011;39320;53.214;6.556;2023-07-02T14:40:53;6.38;;;3.40;;
51907;SDS011;39320;53.214;6.556;2023-07-02T14:43:22;7.65;;;4.28;;